Time;durP1;ratioP1;P1;durP2;ratioP2;P2;SDS_P1;SDS_P2;PMS_P1;PMS_P2;Temp;Humidity;BMP_temperature;BMP_pressure;BME280_temperature;BME280_humidity;BME280_pressure;Samples;Min_cycle;Max_cycle;Signal;HPM_P1;HPM_P2
2023/05/04 00:00:27;;;;;;;;;;;6.50;99.90;;;;;;5054970;28;20288;-72
2023/05/04 00:02:53;;;;;;;;;;;6.20;99.90;;;;;;5053186;28;19925;-72
2023/05/04 00:05:18;;;;;;;;;;;6.20;99.90;;;;;;5054734;28;19968;-72
2023/05/04 00:07:45;;;;;;;;;;;6.20;99.90;;;;;;5055379;28;20143;-72
2023/05/04 00:10:11;;;;;;;;;;;6.20;99.90;;;;;;5053752;28;19924;-72
2023/05/04 00:12:37;;;;;;;;;;;6.10;99.90;;;;;;5054087;28;20459;-73
2023/05/04 00:15:03;;;;;;;;;;;6.30;99.90;;;;;;5054670;28;19935;-73
2023/05/04 00:17:29;;;;;;;;;;;6.10;99.90;;;;;;5051294;28;19925;-72
2023/05/04 00:19:54;;;;;;;;;;;6.10;99.90;;;;;;5053667;28;19931;-73
2023/05/04 00:22:20;;;;;;;;;;;6.30;99.90;;;;;;5053018;28;19924;-73
2023/05/04 00:24:46;;;;;;;;;;;6.10;99.90;;;;;;5054007;28;19925;-72
2023/05/04 00:27:11;;;;;;;;;;;6.10;99.90;;;;;;5055068;28;20137;-72
2023/05/04 00:29:37;;;;;;;;;;;6.10;99.90;;;;;;5053373;28;20030;-73
2023/05/04 00:32:02;;;;;;;;;;;6.10;99.90;;;;;;5054627;28;19925;-73
2023/05/04 00:34:28;;;;;;;;;;;6.10;99.90;;;;;;5055863;28;20079;-73
2023/05/04 00:36:55;;;;;;;;;;;6.10;99.90;;;;;;5054432;28;19931;-73
2023/05/04 00:39:20;;;;;;;;;;;6.60;99.90;;;;;;5055044;28;20030;-72
2023/05/04 00:41:46;;;;;;;;;;;6.10;99.90;;;;;;5053819;28;20033;-73
2023/05/04 00:44:11;;;;;;;;;;;6.10;99.90;;;;;;5053457;28;19925;-73
2023/05/04 00:46:37;;;;;;;;;;;6.00;99.90;;;;;;5055286;28;19925;-73
2023/05/04 00:49:03;;;;;;;;;;;6.00;99.90;;;;;;5055303;28;20368;-73
2023/05/04 00:51:29;;;;;;;;;;;6.00;99.90;;;;;;5054881;28;19925;-72
2023/05/04 00:53:54;;;;;;;;;;;6.00;99.90;;;;;;5055005;28;20410;-73
2023/05/04 00:56:24;;;;;;;;;;;6.00;99.90;;;;;;5054298;28;19925;-73
2023/05/04 00:58:53;;;;;;;;;;;6.00;99.90;;;;;;5053170;28;19929;-72
2023/05/04 01:01:22;;;;;;;;;;;6.00;99.90;;;;;;5053715;28;19931;-72
2023/05/04 01:03:52;;;;;;;;;;;5.90;99.90;;;;;;5055223;28;20023;-73
2023/05/04 01:06:20;;;;;;;;;;;5.90;99.90;;;;;;5052777;28;20270;-73
2023/05/04 01:08:50;;;;;;;;;;;5.90;99.90;;;;;;5054943;28;20015;-73
2023/05/04 01:11:20;;;;;;;;;;;5.90;99.90;;;;;;5054528;28;20011;-73
2023/05/04 01:13:45;;;;;;;;;;;5.90;99.90;;;;;;5054067;28;20304;-73
2023/05/04 01:16:12;;;;;;;;;;;6.90;99.90;;;;;;5053314;28;19925;-73
2023/05/04 01:18:37;;;;;;;;;;;6.10;99.90;;;;;;5054128;28;20011;-72
2023/05/04 01:21:03;;;;;;;;;;;5.80;99.90;;;;;;5054749;28;19984;-72
2023/05/04 01:23:31;;;;;;;;;;;5.80;99.90;;;;;;5054909;28;19940;-73
2023/05/04 01:26:12;;;;;;;;;;;5.80;99.90;;;;;;5052393;28;20388;-73
2023/05/04 01:28:41;;;;;;;;;;;5.80;99.90;;;;;;5053935;28;20372;-73
2023/05/04 01:31:07;;;;;;;;;;;5.80;99.90;;;;;;5054308;28;19927;-73
2023/05/04 01:33:34;;;;;;;;;;;5.80;99.90;;;;;;5052732;28;19932;-73
2023/05/04 01:36:00;;;;;;;;;;;5.80;99.90;;;;;;5054270;28;19928;-73
2023/05/04 01:38:25;;;;;;;;;;;5.80;99.90;;;;;;5053790;28;19928;-73
2023/05/04 01:40:51;;;;;;;;;;;5.80;99.90;;;;;;5052287;28;19960;-73
2023/05/04 01:43:16;;;;;;;;;;;5.80;99.90;;;;;;5054590;28;19982;-73
2023/05/04 01:45:42;;;;;;;;;;;5.80;99.90;;;;;;5054498;28;20015;-73
2023/05/04 01:48:07;;;;;;;;;;;5.80;99.90;;;;;;5052262;28;20043;-73
2023/05/04 01:50:35;;;;;;;;;;;5.80;99.90;;;;;;5052936;28;20390;-73
2023/05/04 01:53:01;;;;;;;;;;;5.80;99.90;;;;;;5050979;28;19931;-73
2023/05/04 01:55:26;;;;;;;;;;;5.70;99.90;;;;;;5053194;28;20007;-72
2023/05/04 01:57:52;;;;;;;;;;;6.20;99.90;;;;;;5052510;28;19931;-73
2023/05/04 02:00:17;;;;;;;;;;;5.70;99.90;;;;;;5053561;28;20011;-73
2023/05/04 02:02:46;;;;;;;;;;;5.70;99.90;;;;;;5053237;28;19971;-73
2023/05/04 02:05:11;;;;;;;;;;;5.80;99.90;;;;;;5052311;28;19935;-73
2023/05/04 02:07:36;;;;;;;;;;;5.80;99.90;;;;;;5053010;28;20285;-73
2023/05/04 02:10:02;;;;;;;;;;;5.80;99.90;;;;;;5052099;28;19936;-73
2023/05/04 02:12:28;;;;;;;;;;;5.80;99.90;;;;;;5053936;28;19925;-72
2023/05/04 02:14:53;;;;;;;;;;;6.40;99.90;;;;;;5051527;28;19960;-73
2023/05/04 02:17:19;;;;;;;;;;;5.80;99.90;;;;;;5052342;28;20394;-72
2023/05/04 02:19:44;;;;;;;;;;;5.70;99.90;;;;;;5052105;28;19925;-72
2023/05/04 02:22:10;;;;;;;;;;;5.70;99.90;;;;;;5051120;28;19932;-73
2023/05/04 02:24:35;;;;;;;;;;;5.80;99.90;;;;;;5054020;28;20052;-73
2023/05/04 02:27:01;;;;;;;;;;;5.70;99.90;;;;;;5053368;28;20025;-73
2023/05/04 02:29:27;;;;;;;;;;;5.70;99.90;;;;;;5051242;28;19925;-73
2023/05/04 02:31:52;;;;;;;;;;;5.70;99.90;;;;;;5052091;28;19929;-72
2023/05/04 02:34:17;;;;;;;;;;;5.70;99.90;;;;;;5052336;28;20289;-72
2023/05/04 02:36:43;;;;;;;;;;;5.70;99.90;;;;;;5051613;28;19971;-72
2023/05/04 02:39:08;;;;;;;;;;;6.00;99.90;;;;;;5053405;28;19925;-73
2023/05/04 02:41:34;;;;;;;;;;;6.30;99.90;;;;;;5052375;28;20019;-73
2023/05/04 02:44:00;;;;;;;;;;;5.70;99.90;;;;;;5050448;28;20016;-73
2023/05/04 02:46:25;;;;;;;;;;;5.70;99.90;;;;;;5052816;28;19972;-73
2023/05/04 02:48:54;;;;;;;;;;;5.60;99.90;;;;;;5053135;28;20335;-73
2023/05/04 02:51:19;;;;;;;;;;;5.70;99.90;;;;;;5050955;28;19986;-73
2023/05/04 02:53:45;;;;;;;;;;;5.70;99.90;;;;;;5051406;28;19925;-73
2023/05/04 02:56:10;;;;;;;;;;;5.60;99.90;;;;;;5052986;28;19935;-72
2023/05/04 02:58:35;;;;;;;;;;;5.90;99.90;;;;;;5052592;28;20284;-73
2023/05/04 03:01:01;;;;;;;;;;;5.60;99.90;;;;;;5052554;28;19932;-73
2023/05/04 03:03:27;;;;;;;;;;;5.60;99.90;;;;;;5052977;28;19967;-72
2023/05/04 03:05:55;;;;;;;;;;;5.60;99.90;;;;;;5051049;28;19932;-72
2023/05/04 03:08:21;;;;;;;;;;;5.60;99.90;;;;;;5053141;28;19932;-72
2023/05/04 03:10:46;;;;;;;;;;;5.70;99.90;;;;;;5052453;28;19936;-72
2023/05/04 03:13:11;;;;;;;;;;;6.70;99.90;;;;;;5052780;28;19930;-72
2023/05/04 03:15:37;;;;;;;;;;;5.70;99.90;;;;;;5053199;28;19936;-72
2023/05/04 03:18:02;;;;;;;;;;;5.60;99.90;;;;;;5050433;28;20438;-72
2023/05/04 03:20:28;;;;;;;;;;;5.70;99.90;;;;;;5053240;28;19925;-72
2023/05/04 03:22:53;;;;;;;;;;;5.60;99.90;;;;;;5053019;28;19921;-72
2023/05/04 03:25:19;;;;;;;;;;;5.70;99.90;;;;;;5051341;28;19925;-72
2023/05/04 03:27:45;;;;;;;;;;;5.70;99.90;;;;;;5052907;28;19925;-73
2023/05/04 03:30:11;;;;;;;;;;;6.80;99.90;;;;;;5052697;28;20368;-72
2023/05/04 03:32:36;;;;;;;;;;;5.60;99.90;;;;;;5051004;28;19968;-73
2023/05/04 03:35:02;;;;;;;;;;;5.60;99.90;;;;;;5051404;28;19929;-73
2023/05/04 03:37:27;;;;;;;;;;;5.60;99.90;;;;;;5053339;28;19925;-72
2023/05/04 03:39:53;;;;;;;;;;;5.60;99.90;;;;;;5051461;28;20421;-72
2023/05/04 03:42:18;;;;;;;;;;;5.60;99.90;;;;;;5051429;28;20012;-72
2023/05/04 03:44:44;;;;;;;;;;;6.20;99.90;;;;;;5051791;28;19925;-73
2023/05/04 03:47:09;;;;;;;;;;;5.60;99.90;;;;;;5051813;28;19924;-73
2023/05/04 03:49:35;;;;;;;;;;;5.60;99.90;;;;;;5051181;28;19976;-73
2023/05/04 03:52:00;;;;;;;;;;;5.60;99.90;;;;;;5052605;28;19925;-72
2023/05/04 03:54:44;;;;;;;;;;;5.50;99.90;;;;;;5051934;28;19942;-73
2023/05/04 03:57:09;;;;;;;;;;;5.60;99.90;;;;;;5050836;28;19925;-73
2023/05/04 03:59:35;;;;;;;;;;;5.50;99.90;;;;;;5051631;28;19925;-73
2023/05/04 04:02:01;;;;;;;;;;;5.50;99.90;;;;;;5049521;28;20454;-73
2023/05/04 04:04:29;;;;;;;;;;;5.80;99.90;;;;;;5050998;28;19924;-72
2023/05/04 04:06:55;;;;;;;;;;;5.60;99.90;;;;;;5051151;28;20438;-72
2023/05/04 04:09:20;;;;;;;;;;;5.50;99.90;;;;;;5049947;28;19925;-72
2023/05/04 04:11:46;;;;;;;;;;;6.70;99.90;;;;;;5051341;28;19924;-72
2023/05/04 04:14:11;;;;;;;;;;;5.50;99.90;;;;;;5049839;28;19924;-72
2023/05/04 04:16:37;;;;;;;;;;;5.80;99.90;;;;;;5054344;28;19982;-72
2023/05/04 04:19:02;;;;;;;;;;;5.60;99.90;;;;;;5055602;28;19928;-72
2023/05/04 04:21:28;;;;;;;;;;;5.50;99.90;;;;;;5054767;28;19928;-72
2023/05/04 04:23:53;;;;;;;;;;;5.60;99.90;;;;;;5054402;28;19932;-72
2023/05/04 04:26:20;;;;;;;;;;;6.90;99.90;;;;;;5054603;28;19925;-72
2023/05/04 04:28:49;;;;;;;;;;;5.60;99.90;;;;;;5053908;28;20466;-72
2023/05/04 04:31:16;;;;;;;;;;;5.50;99.90;;;;;;5055369;28;19932;-72
2023/05/04 04:33:42;;;;;;;;;;;5.60;99.90;;;;;;5055399;28;20284;-73
2023/05/04 04:36:07;;;;;;;;;;;6.30;99.90;;;;;;5053927;28;19932;-73
2023/05/04 04:38:33;;;;;;;;;;;5.60;99.90;;;;;;5054959;28;19925;-73
2023/05/04 04:40:58;;;;;;;;;;;5.60;99.90;;;;;;5053603;28;20012;-73
2023/05/04 04:43:24;;;;;;;;;;;5.70;99.90;;;;;;5053516;28;19925;-73
2023/05/04 04:45:50;;;;;;;;;;;6.20;99.90;;;;;;5054090;28;20019;-72
2023/05/04 04:48:15;;;;;;;;;;;5.70;99.90;;;;;;5054212;28;19935;-73
2023/05/04 04:50:41;;;;;;;;;;;6.20;99.90;;;;;;5053217;28;19982;-72
2023/05/04 04:53:06;;;;;;;;;;;5.80;99.90;;;;;;5053221;28;19987;-72
2023/05/04 04:55:33;;;;;;;;;;;5.90;99.90;;;;;;5055372;28;19929;-72
2023/05/04 04:57:58;;;;;;;;;;;5.90;99.90;;;;;;5053233;28;20015;-73
2023/05/04 05:00:25;;;;;;;;;;;6.20;99.90;;;;;;5053750;28;19975;-72
2023/05/04 05:02:50;;;;;;;;;;;6.00;99.90;;;;;;5054610;28;19929;-72
2023/05/04 05:05:16;;;;;;;;;;;6.10;99.90;;;;;;5054490;28;19925;-73
2023/05/04 05:07:42;;;;;;;;;;;6.10;99.90;;;;;;5053709;28;19929;-73
2023/05/04 05:10:08;;;;;;;;;;;6.60;99.90;;;;;;5053118;28;20285;-73
2023/05/04 05:12:34;;;;;;;;;;;6.30;99.90;;;;;;5053058;28;19925;-73
2023/05/04 05:15:00;;;;;;;;;;;6.30;99.90;;;;;;5053570;28;19931;-73
2023/05/04 05:17:25;;;;;;;;;;;6.40;99.90;;;;;;5052675;28;19925;-73
2023/05/04 05:19:51;;;;;;;;;;;6.50;99.90;;;;;;5053161;28;20007;-73
2023/05/04 05:22:16;;;;;;;;;;;6.60;99.90;;;;;;5054704;28;19925;-73
2023/05/04 05:24:42;;;;;;;;;;;6.60;99.90;;;;;;5052631;28;19928;-73
2023/05/04 05:27:07;;;;;;;;;;;6.70;99.90;;;;;;5053762;28;19924;-73
2023/05/04 05:29:34;;;;;;;;;;;7.10;99.90;;;;;;5054494;28;19931;-72
2023/05/04 05:31:59;;;;;;;;;;;6.80;99.90;;;;;;5053830;28;20015;-73
2023/05/04 05:34:26;;;;;;;;;;;6.90;99.90;;;;;;5054492;28;20015;-73
2023/05/04 05:36:52;;;;;;;;;;;6.90;99.90;;;;;;5052729;28;19932;-73
2023/05/04 05:39:17;;;;;;;;;;;7.00;99.90;;;;;;5052111;28;19929;-73
2023/05/04 05:41:43;;;;;;;;;;;7.10;99.90;;;;;;5054149;28;20340;-73
2023/05/04 05:44:08;;;;;;;;;;;7.10;99.90;;;;;;5052974;28;19976;-73
2023/05/04 05:46:34;;;;;;;;;;;7.20;99.90;;;;;;5053624;28;19931;-73
2023/05/04 05:49:00;;;;;;;;;;;7.30;99.90;;;;;;5053397;28;20296;-73
2023/05/04 05:51:25;;;;;;;;;;;7.40;99.90;;;;;;5053992;28;19925;-73
2023/05/04 05:53:53;;;;;;;;;;;7.60;99.90;;;;;;5051754;28;19932;-73
2023/05/04 05:56:22;;;;;;;;;;;7.50;99.90;;;;;;5054384;28;19968;-73
2023/05/04 05:58:51;;;;;;;;;;;7.60;99.90;;;;;;5054426;28;19937;-73
2023/05/04 06:01:17;;;;;;;;;;;7.70;99.90;;;;;;5053284;28;19932;-73
2023/05/04 06:03:42;;;;;;;;;;;7.80;99.90;;;;;;5052495;28;19928;-73
2023/05/04 06:06:08;;;;;;;;;;;7.80;99.90;;;;;;5052530;28;19951;-73
2023/05/04 06:08:34;;;;;;;;;;;7.90;99.90;;;;;;5051649;28;19925;-72
2023/05/04 06:10:59;;;;;;;;;;;8.00;99.90;;;;;;5051615;28;20011;-74
2023/05/04 06:13:25;;;;;;;;;;;8.10;99.90;;;;;;5052481;28;20011;-73
2023/05/04 06:15:53;;;;;;;;;;;8.30;99.90;;;;;;5054633;28;19932;-74
2023/05/04 06:18:19;;;;;;;;;;;9.00;99.90;;;;;;5054258;28;19970;-73
2023/05/04 06:20:45;;;;;;;;;;;8.30;99.90;;;;;;5052294;28;19924;-73
2023/05/04 06:23:13;;;;;;;;;;;8.40;99.90;;;;;;5051824;28;19935;-73
2023/05/04 06:25:39;;;;;;;;;;;8.50;99.90;;;;;;5052165;28;20270;-74
2023/05/04 06:28:05;;;;;;;;;;;8.50;99.90;;;;;;5052703;28;19936;-73
2023/05/04 06:30:30;;;;;;;;;;;8.60;99.90;;;;;;5053410;28;19968;-74
2023/05/04 06:32:56;;;;;;;;;;;8.90;99.90;;;;;;5051937;28;19931;-73
2023/05/04 06:35:21;;;;;;;;;;;9.00;99.90;;;;;;5052647;28;20288;-74
2023/05/04 06:37:47;;;;;;;;;;;8.90;99.90;;;;;;5051451;28;19924;-73
2023/05/04 06:40:13;;;;;;;;;;;9.10;99.90;;;;;;5051151;28;19929;-73
2023/05/04 06:42:38;;;;;;;;;;;9.20;99.90;;;;;;5052098;28;19954;-74
2023/05/04 06:45:04;;;;;;;;;;;9.30;99.90;;;;;;5053116;28;19932;-74
2023/05/04 06:47:29;;;;;;;;;;;9.30;99.90;;;;;;5053315;28;19979;-74
2023/05/04 06:49:55;;;;;;;;;;;10.00;99.90;;;;;;5051026;28;20423;-74
2023/05/04 06:52:20;;;;;;;;;;;9.40;99.90;;;;;;5053578;28;19925;-74
2023/05/04 06:54:46;;;;;;;;;;;9.40;99.90;;;;;;5052856;28;20027;-74
2023/05/04 06:57:12;;;;;;;;;;;9.90;99.90;;;;;;5052173;28;19931;-73
2023/05/04 06:59:37;;;;;;;;;;;9.60;99.90;;;;;;5051828;28;19925;-73
2023/05/04 07:02:03;;;;;;;;;;;9.50;99.90;;;;;;5052384;28;19925;-74
2023/05/04 07:04:28;;;;;;;;;;;9.70;99.90;;;;;;5050303;28;19925;-72
2023/05/04 07:06:54;;;;;;;;;;;9.70;99.90;;;;;;5051157;28;19920;-74
2023/05/04 07:09:19;;;;;;;;;;;9.70;99.90;;;;;;5050986;28;19931;-76
2023/05/04 07:11:45;;;;;;;;;;;9.80;99.90;;;;;;5050701;28;19929;-76
2023/05/04 07:14:10;;;;;;;;;;;10.00;99.90;;;;;;5051156;28;20354;-77
2023/05/04 07:16:36;;;;;;;;;;;10.00;99.90;;;;;;5051699;28;19924;-77
2023/05/04 07:19:03;;;;;;;;;;;10.10;99.90;;;;;;5051534;28;20017;-77
2023/05/04 07:21:29;;;;;;;;;;;10.40;99.90;;;;;;5052619;28;19972;-78
2023/05/04 07:23:54;;;;;;;;;;;10.50;99.90;;;;;;5050962;28;20339;-76
2023/05/04 07:26:20;;;;;;;;;;;10.70;99.90;;;;;;5052335;28;19929;-76
2023/05/04 07:28:46;;;;;;;;;;;10.90;99.90;;;;;;5051737;28;19925;-78
2023/05/04 07:31:13;;;;;;;;;;;11.00;99.90;;;;;;5050529;28;19932;-75
2023/05/04 07:33:39;;;;;;;;;;;11.40;99.90;;;;;;5051101;28;19925;-77
2023/05/04 07:36:05;;;;;;;;;;;11.80;99.90;;;;;;5052669;28;19925;-77
2023/05/04 07:38:31;;;;;;;;;;;12.30;99.90;;;;;;5050357;28;19932;-77
2023/05/04 07:40:56;;;;;;;;;;;12.70;99.90;;;;;;5052618;28;19925;-78
2023/05/04 07:43:22;;;;;;;;;;;12.90;99.90;;;;;;5050513;28;19982;-76
2023/05/04 07:45:48;;;;;;;;;;;13.50;99.90;;;;;;5051661;28;20059;-76
2023/05/04 07:48:13;;;;;;;;;;;13.70;99.90;;;;;;5051159;28;19932;-76
2023/05/04 07:50:39;;;;;;;;;;;13.90;99.90;;;;;;5056027;28;19931;-76
2023/05/04 07:53:04;;;;;;;;;;;13.90;99.90;;;;;;5055158;28;20396;-73
2023/05/04 07:55:30;;;;;;;;;;;14.10;99.90;;;;;;5055426;28;20070;-74
2023/05/04 07:57:55;;;;;;;;;;;14.30;99.90;;;;;;5055684;28;19925;-75
2023/05/04 08:00:21;;;;;;;;;;;14.80;99.90;;;;;;5054413;28;19964;-74
2023/05/04 08:02:47;;;;;;;;;;;15.00;99.90;;;;;;5056074;28;19925;-76
2023/05/04 08:05:12;;;;;;;;;;;15.00;99.90;;;;;;5056214;28;19929;-75
2023/05/04 08:07:38;;;;;;;;;;;15.10;99.90;;;;;;5055245;28;19931;-75
2023/05/04 08:10:04;;;;;;;;;;;15.30;99.90;;;;;;5054391;28;19924;-81
2023/05/04 08:12:29;;;;;;;;;;;15.20;99.90;;;;;;5055429;28;19982;-79
2023/05/04 08:14:55;;;;;;;;;;;15.50;99.90;;;;;;5053399;28;19925;-81
2023/05/04 08:17:20;;;;;;;;;;;15.80;99.90;;;;;;5054638;28;19925;-80
2023/05/04 08:19:46;;;;;;;;;;;15.80;99.90;;;;;;5056098;28;19932;-82
2023/05/04 08:22:11;;;;;;;;;;;15.80;99.90;;;;;;5053566;28;19932;-78
2023/05/04 08:24:37;;;;;;;;;;;15.60;99.90;;;;;;5055792;28;20288;-76
2023/05/04 08:27:02;;;;;;;;;;;15.50;99.90;;;;;;5053142;28;19968;-76
2023/05/04 08:29:30;;;;;;;;;;;15.60;99.90;;;;;;5053809;28;19998;-76
2023/05/04 08:31:56;;;;;;;;;;;15.60;99.90;;;;;;5055204;28;20436;-79
2023/05/04 08:34:22;;;;;;;;;;;15.40;99.90;;;;;;5054612;28;19925;-78
2023/05/04 08:36:47;;;;;;;;;;;15.40;99.90;;;;;;5054617;28;20023;-79
2023/05/04 08:39:13;;;;;;;;;;;15.20;99.90;;;;;;5054901;28;19929;-76
2023/05/04 08:41:42;;;;;;;;;;;15.10;99.90;;;;;;5054502;28;19928;-74
2023/05/04 08:44:09;;;;;;;;;;;15.10;99.90;;;;;;5054038;28;19931;-78
2023/05/04 08:46:36;;;;;;;;;;;14.90;99.90;;;;;;5055664;28;19932;-79
2023/05/04 08:49:01;;;;;;;;;;;15.10;99.90;;;;;;5053570;28;19924;-79
2023/05/04 08:51:27;;;;;;;;;;;15.50;99.90;;;;;;5053813;28;19925;-78
2023/05/04 08:53:53;;;;;;;;;;;16.20;99.90;;;;;;5053151;28;19929;-79
2023/05/04 08:56:18;;;;;;;;;;;17.00;99.90;;;;;;5052742;28;19925;-78
2023/05/04 08:58:48;;;;;;;;;;;17.80;99.90;;;;;;5052470;28;19933;-77
2023/05/04 09:01:15;;;;;;;;;;;18.40;98.60;;;;;;5051688;28;19931;-80
2023/05/04 09:03:41;;;;;;;;;;;18.90;97.40;;;;;;5037017;28;19932;-78
2023/05/04 09:06:07;;;;;;;;;;;18.90;97.70;;;;;;5052450;28;19925;-79
2023/05/04 09:08:33;;;;;;;;;;;18.70;96.30;;;;;;5054123;28;19929;-79
2023/05/04 09:10:58;;;;;;;;;;;18.80;97.20;;;;;;5035486;28;19968;-79
2023/05/04 09:13:24;;;;;;;;;;;18.90;96.30;;;;;;5045898;28;19925;-78
2023/05/04 09:15:54;;;;;;;;;;;19.00;95.90;;;;;;5040318;28;20332;-77
2023/05/04 09:18:20;;;;;;;;;;;19.30;95.60;;;;;;5039142;28;19925;-78
2023/05/04 09:20:46;;;;;;;;;;;19.60;93.90;;;;;;5051717;28;19932;-78
2023/05/04 09:23:12;;;;;;;;;;;19.60;93.50;;;;;;5048926;28;19925;-78
2023/05/04 09:25:50;;;;;;;;;;;19.60;93.00;;;;;;5039754;28;19936;-79
2023/05/04 09:28:17;;;;;;;;;;;19.90;93.40;;;;;;5053655;28;19925;-78
2023/05/04 09:30:43;;;;;;;;;;;19.90;92.40;;;;;;5035412;28;19970;-79
2023/05/04 09:33:09;;;;;;;;;;;19.40;92.40;;;;;;5030943;28;19925;-78
2023/05/04 09:35:43;;;;;;;;;;;19.30;93.60;;;;;;5051564;28;20086;-80
2023/05/04 09:38:09;;;;;;;;;;;19.20;93.70;;;;;;5050706;28;19925;-83
2023/05/04 09:40:35;;;;;;;;;;;19.20;93.90;;;;;;5037867;28;19995;-81
2023/05/04 09:43:01;;;;;;;;;;;19.30;93.70;;;;;;5049620;28;19925;-81
2023/05/04 09:45:40;;;;;;;;;;;19.00;94.10;;;;;;5046521;28;19932;-79
2023/05/04 09:48:14;;;;;;;;;;;18.60;94.00;;;;;;5053964;28;20300;-78
2023/05/04 09:50:46;;;;;;;;;;;18.90;95.30;;;;;;5052610;28;19932;-79
2023/05/04 09:53:12;;;;;;;;;;;19.10;94.20;;;;;;5053476;28;19970;-78
2023/05/04 09:55:40;;;;;;;;;;;19.30;93.90;;;;;;5040014;28;19940;-82
2023/05/04 09:58:06;;;;;;;;;;;19.30;93.50;;;;;;5052388;28;19925;-81
2023/05/04 10:00:34;;;;;;;;;;;19.50;93.80;;;;;;5042747;28;19933;-82
2023/05/04 10:03:03;;;;;;;;;;;19.70;94.10;;;;;;5050559;28;19971;-79
2023/05/04 10:05:28;;;;;;;;;;;19.90;94.10;;;;;;5050514;28;20012;-81
2023/05/04 10:07:54;;;;;;;;;;;20.30;93.20;;;;;;5046309;28;20012;-80
2023/05/04 10:10:20;;;;;;;;;;;20.10;92.60;;;;;;5040008;28;19924;-78
2023/05/04 10:12:45;;;;;;;;;;;20.30;93.00;;;;;;5039719;28;20028;-81
2023/05/04 10:15:12;;;;;;;;;;;20.40;93.10;;;;;;5039682;28;19925;-82
2023/05/04 10:17:48;;;;;;;;;;;20.90;92.30;;;;;;5050985;28;19924;-77
2023/05/04 10:20:24;;;;;;;;;;;21.10;91.70;;;;;;5049472;28;19925;-76
2023/05/04 10:22:50;;;;;;;;;;;21.10;91.30;;;;;;5045604;28;19929;-74
2023/05/04 10:25:18;;;;;;;;;;;21.30;92.30;;;;;;5045853;28;19931;-74
2023/05/04 10:28:00;;;;;;;;;;;21.20;91.00;;;;;;5048667;28;19931;-75
2023/05/04 10:30:26;;;;;;;;;;;21.30;91.00;;;;;;5039977;28;20312;-76
2023/05/04 10:32:58;;;;;;;;;;;21.40;91.10;;;;;;5039685;28;19925;-75
2023/05/04 10:35:24;;;;;;;;;;;21.50;90.40;;;;;;5046738;28;19925;-72
2023/05/04 10:37:53;;;;;;;;;;;21.70;91.00;;;;;;5038481;28;19964;-72
2023/05/04 10:40:20;;;;;;;;;;;21.70;90.50;;;;;;5044582;28;19932;-74
2023/05/04 10:42:45;;;;;;;;;;;22.00;92.20;;;;;;5049471;28;20020;-76
2023/05/04 10:45:11;;;;;;;;;;;22.10;89.50;;;;;;5051794;28;20028;-72
2023/05/04 10:47:39;;;;;;;;;;;22.20;90.70;;;;;;5035948;28;19968;-73
2023/05/04 10:50:05;;;;;;;;;;;22.30;88.60;;;;;;5046438;28;20344;-72
2023/05/04 10:52:31;;;;;;;;;;;22.30;86.20;;;;;;5050142;28;19929;-74
2023/05/04 10:55:01;;;;;;;;;;;22.30;88.80;;;;;;5047629;28;20004;-73
2023/05/04 10:57:28;;;;;;;;;;;21.80;90.00;;;;;;5047860;28;20234;-72
2023/05/04 10:59:55;;;;;;;;;;;21.60;88.60;;;;;;5045513;28;20091;-73
2023/05/04 11:02:21;;;;;;;;;;;21.30;89.30;;;;;;5037819;28;19924;-72
2023/05/04 11:04:56;;;;;;;;;;;21.10;89.20;;;;;;5051159;28;19932;-73
2023/05/04 11:07:31;;;;;;;;;;;20.90;90.10;;;;;;5043138;28;19932;-72
2023/05/04 11:09:58;;;;;;;;;;;20.90;90.20;;;;;;5049237;28;20448;-73
2023/05/04 11:12:23;;;;;;;;;;;21.00;89.50;;;;;;5039391;28;20257;-72
2023/05/04 11:14:49;;;;;;;;;;;21.00;90.30;;;;;;5037090;28;19925;-72
2023/05/04 11:17:15;;;;;;;;;;;20.80;90.00;;;;;;5043835;28;20607;-74
2023/05/04 11:19:49;;;;;;;;;;;20.70;90.40;;;;;;5033763;28;20495;-71
2023/05/04 11:22:15;;;;;;;;;;;21.00;90.50;;;;;;5042137;28;19932;-71
2023/05/04 11:24:42;;;;;;;;;;;21.20;89.70;;;;;;5042086;28;19928;-71
2023/05/04 11:27:18;;;;;;;;;;;21.60;90.90;;;;;;5049091;28;19925;-70
2023/05/04 11:29:53;;;;;;;;;;;21.90;90.50;;;;;;5044977;28;19920;-71
2023/05/04 11:32:19;;;;;;;;;;;22.00;87.60;;;;;;5053609;28;19928;-71
2023/05/04 11:34:45;;;;;;;;;;;22.30;86.80;;;;;;5042096;28;20364;-71
2023/05/04 11:37:11;;;;;;;;;;;22.30;89.10;;;;;;5039508;28;20340;-73
2023/05/04 11:39:37;;;;;;;;;;;22.50;88.60;;;;;;5046903;28;19925;-74
2023/05/04 11:42:06;;;;;;;;;;;22.20;85.60;;;;;;5050692;28;19940;-73
2023/05/04 11:44:32;;;;;;;;;;;22.00;83.40;;;;;;5038086;28;19929;-73
2023/05/04 11:46:58;;;;;;;;;;;22.20;85.10;;;;;;5050484;28;19975;-71
2023/05/04 11:49:25;;;;;;;;;;;22.40;88.30;;;;;;5041491;28;19925;-73
2023/05/04 11:51:51;;;;;;;;;;;22.20;85.90;;;;;;5049291;28;19952;-71
2023/05/04 11:54:21;;;;;;;;;;;22.20;87.50;;;;;;5052044;28;20426;-72
2023/05/04 11:56:46;;;;;;;;;;;22.10;87.70;;;;;;5046847;28;19978;-72
2023/05/04 11:59:12;;;;;;;;;;;22.00;85.50;;;;;;5050406;28;19933;-72
2023/05/04 12:01:37;;;;;;;;;;;22.00;87.90;;;;;;5053481;28;19929;-72
2023/05/04 12:04:03;;;;;;;;;;;22.30;87.20;;;;;;5053354;28;19981;-72
2023/05/04 12:06:32;;;;;;;;;;;22.40;82.40;;;;;;5045240;28;20011;-72
2023/05/04 12:09:04;;;;;;;;;;;22.40;84.10;;;;;;5052647;28;19925;-73
2023/05/04 12:11:30;;;;;;;;;;;22.40;84.80;;;;;;5052775;28;19924;-75
2023/05/04 12:14:06;;;;;;;;;;;22.40;83.60;;;;;;5042320;28;19970;-75
2023/05/04 12:16:32;;;;;;;;;;;22.20;85.70;;;;;;5052770;28;19964;-74
2023/05/04 12:19:04;;;;;;;;;;;22.10;85.50;;;;;;5055151;28;19924;-73
2023/05/04 12:21:31;;;;;;;;;;;22.20;84.30;;;;;;5050583;28;19932;-74
2023/05/04 12:23:56;;;;;;;;;;;22.20;83.40;;;;;;5054688;28;19978;-73
2023/05/04 12:26:22;;;;;;;;;;;22.20;82.90;;;;;;5053520;28;19929;-74
2023/05/04 12:28:48;;;;;;;;;;;22.10;85.20;;;;;;5032683;28;19925;-72
2023/05/04 12:31:14;;;;;;;;;;;21.90;86.00;;;;;;5043076;28;20373;-73
2023/05/04 12:33:39;;;;;;;;;;;22.10;86.60;;;;;;5051258;28;19932;-71
2023/05/04 12:36:14;;;;;;;;;;;22.30;83.50;;;;;;5035140;28;19929;-72
2023/05/04 12:38:39;;;;;;;;;;;22.20;83.80;;;;;;5043805;28;19925;-72
2023/05/04 12:41:06;;;;;;;;;;;22.10;83.60;;;;;;5043158;28;19931;-73
2023/05/04 12:43:32;;;;;;;;;;;21.80;82.70;;;;;;5054687;28;20015;-73
2023/05/04 12:45:58;;;;;;;;;;;21.90;85.70;;;;;;5038048;28;20029;-74
2023/05/04 12:48:25;;;;;;;;;;;21.80;82.80;;;;;;5047467;28;19987;-73
2023/05/04 12:50:50;;;;;;;;;;;21.80;84.00;;;;;;5041453;28;19933;-72
2023/05/04 12:53:16;;;;;;;;;;;21.70;84.00;;;;;;5053969;28;19929;-75
2023/05/04 12:55:42;;;;;;;;;;;21.60;84.30;;;;;;5036756;28;19964;-75
2023/05/04 12:58:08;;;;;;;;;;;21.70;85.60;;;;;;5045320;28;20406;-75
2023/05/04 13:00:34;;;;;;;;;;;21.70;83.70;;;;;;5046937;28;19929;-76
2023/05/04 13:03:03;;;;;;;;;;;21.60;83.90;;;;;;5050097;28;19925;-74
2023/05/04 13:05:28;;;;;;;;;;;21.50;84.20;;;;;;5054087;28;19925;-76
2023/05/04 13:07:54;;;;;;;;;;;21.50;85.70;;;;;;5036101;28;19979;-76
2023/05/04 13:10:20;;;;;;;;;;;21.40;84.70;;;;;;5047693;28;20363;-74
2023/05/04 13:12:46;;;;;;;;;;;21.30;84.90;;;;;;5047864;28;19932;-75
2023/05/04 13:15:12;;;;;;;;;;;21.00;86.00;;;;;;5051425;28;19921;-74
2023/05/04 13:17:43;;;;;;;;;;;20.90;87.80;;;;;;5052805;28;19931;-74
2023/05/04 13:20:10;;;;;;;;;;;20.80;88.70;;;;;;5036043;28;19991;-74
2023/05/04 13:22:35;;;;;;;;;;;21.10;85.50;;;;;;5047253;28;19974;-74
2023/05/04 13:25:01;;;;;;;;;;;21.10;86.70;;;;;;5043378;28;19929;-75
2023/05/04 13:27:26;;;;;;;;;;;21.40;87.00;;;;;;5044805;28;20373;-75
2023/05/04 13:29:52;;;;;;;;;;;21.50;85.30;;;;;;5048359;28;19972;-75
2023/05/04 13:32:18;;;;;;;;;;;21.60;86.70;;;;;;5036880;28;20410;-73
2023/05/04 13:34:43;;;;;;;;;;;21.60;86.20;;;;;;5045914;28;19929;-74
2023/05/04 13:37:11;;;;;;;;;;;21.50;85.00;;;;;;5042455;28;19936;-75
2023/05/04 13:39:40;;;;;;;;;;;21.60;85.60;;;;;;5037064;28;19960;-70
2023/05/04 13:42:06;;;;;;;;;;;21.80;86.10;;;;;;5050609;28;20063;-72
2023/05/04 13:44:31;;;;;;;;;;;21.70;87.80;;;;;;5039405;28;19932;-72
2023/05/04 13:47:00;;;;;;;;;;;21.70;84.60;;;;;;5043417;28;20297;-76
2023/05/04 13:49:26;;;;;;;;;;;21.80;85.30;;;;;;5045480;28;19925;-80
2023/05/04 13:51:52;;;;;;;;;;;21.70;86.60;;;;;;5051638;28;19948;-75
2023/05/04 13:54:18;;;;;;;;;;;21.70;85.30;;;;;;5047912;28;19971;-74
2023/05/04 13:56:43;;;;;;;;;;;21.60;85.30;;;;;;5040981;28;19924;-74
2023/05/04 13:59:09;;;;;;;;;;;21.50;84.80;;;;;;5040397;28;19929;-73
2023/05/04 14:01:34;;;;;;;;;;;21.70;86.20;;;;;;5044506;28;20443;-74
2023/05/04 14:04:00;;;;;;;;;;;21.70;86.00;;;;;;5050831;28;20002;-74
2023/05/04 14:06:28;;;;;;;;;;;21.90;85.80;;;;;;5048521;28;19925;-73
2023/05/04 14:08:53;;;;;;;;;;;21.80;84.00;;;;;;5041815;28;19975;-74
2023/05/04 14:11:19;;;;;;;;;;;21.80;84.60;;;;;;5040320;28;19929;-73
2023/05/04 14:13:44;;;;;;;;;;;21.90;84.40;;;;;;5049899;28;19940;-72
2023/05/04 14:16:10;;;;;;;;;;;21.90;86.50;;;;;;5049444;28;19975;-73
2023/05/04 14:18:35;;;;;;;;;;;21.90;86.50;;;;;;5038603;28;20343;-73